Time;durP1;ratioP1;P1;durP2;ratioP2;P2;SDS_P1;SDS_P2;PMS_P1;PMS_P2;Temp;Humidity;BMP_temperature;BMP_pressure;BME280_temperature;BME280_humidity;BME280_pressure;Samples;Min_cycle;Max_cycle;Signal;HPM_P1;HPM_P2
2022/04/18 00:00:21;;;;;;;0.40;0.20;;;9.80;47.50;;;;;;5012286;28;20912;-67
2022/04/18 00:02:47;;;;;;;0.40;0.30;;;9.90;46.60;;;;;;5012486;28;20380;-67
2022/04/18 00:05:13;;;;;;;0.40;0.20;;;9.90;45.90;;;;;;5004857;28;20499;-67
2022/04/18 00:07:39;;;;;;;0.40;0.30;;;9.90;45.40;;;;;;5010634;28;20427;-67
2022/04/18 00:10:05;;;;;;;0.40;0.20;;;9.90;45.30;;;;;;5010702;28;20421;-67
2022/04/18 00:12:31;;;;;;;0.40;0.30;;;9.90;45.80;;;;;;5011303;28;20404;-68
2022/04/18 00:14:57;;;;;;;0.40;0.30;;;10.00;45.40;;;;;;5010743;28;20396;-68
2022/04/18 00:17:23;;;;;;;0.40;0.30;;;9.90;45.80;;;;;;5017488;28;21007;-68
2022/04/18 00:19:49;;;;;;;0.40;0.20;;;10.00;45.50;;;;;;5010965;28;20467;-68
2022/04/18 00:22:14;;;;;;;0.40;0.30;;;9.90;46.20;;;;;;5010502;28;20881;-67
2022/04/18 00:24:40;;;;;;;0.40;0.30;;;10.00;45.60;;;;;;5010815;28;20801;-68
2022/04/18 00:27:05;;;;;;;0.40;0.30;;;10.00;45.50;;;;;;5012033;28;20381;-68
2022/04/18 00:29:31;;;;;;;0.40;0.30;;;9.90;45.90;;;;;;5012580;28;20393;-68
2022/04/18 00:31:57;;;;;;;0.40;0.20;;;9.80;45.90;;;;;;5020155;28;20479;-68
2022/04/18 00:34:23;;;;;;;0.50;0.47;;;9.80;47.60;;;;;;5004832;28;20400;-68
2022/04/18 00:36:48;;;;;;;0.40;0.20;;;9.70;47.40;;;;;;5005201;28;20436;-68
2022/04/18 00:39:14;;;;;;;0.40;0.20;;;9.60;47.10;;;;;;5010691;28;20463;-68
2022/04/18 00:41:39;;;;;;;0.50;0.50;;;9.60;47.70;;;;;;5009311;28;20400;-68
2022/04/18 00:44:05;;;;;;;0.40;0.20;;;9.50;48.30;;;;;;5011489;28;20390;-68
2022/04/18 00:46:31;;;;;;;0.40;0.20;;;9.50;47.70;;;;;;5013950;28;20470;-68
2022/04/18 00:48:56;;;;;;;0.40;0.20;;;9.50;47.90;;;;;;5016896;28;20385;-68
2022/04/18 00:51:25;;;;;;;0.40;0.20;;;9.50;48.40;;;;;;5015584;28;20482;-68
2022/04/18 00:53:55;;;;;;;0.60;0.60;;;9.40;48.30;;;;;;5017194;28;20407;-68
2022/04/18 00:56:22;;;;;;;0.40;0.30;;;9.30;48.80;;;;;;5010297;28;20397;-68
2022/04/18 00:58:49;;;;;;;0.40;0.30;;;9.10;48.30;;;;;;5001927;28;20437;-68
2022/04/18 01:01:15;;;;;;;0.40;0.20;;;9.10;48.50;;;;;;4991170;28;20391;-67
2022/04/18 01:03:42;;;;;;;0.40;0.30;;;9.00;48.80;;;;;;4991169;28;20387;-68
2022/04/18 01:06:09;;;;;;;0.40;0.20;;;9.10;48.70;;;;;;4991863;28;20393;-67
2022/04/18 01:08:35;;;;;;;0.40;0.20;;;9.10;48.20;;;;;;4991957;28;20466;-69
2022/04/18 01:11:05;;;;;;;0.50;0.43;;;8.90;48.80;;;;;;4991452;28;20423;-68
2022/04/18 01:13:38;;;;;;;0.55;0.50;;;9.00;48.40;;;;;;4991663;28;20383;-67
2022/04/18 01:16:04;;;;;;;0.40;0.30;;;9.00;49.50;;;;;;4991318;28;20394;-67
2022/04/18 01:18:29;;;;;;;0.40;0.20;;;8.90;49.10;;;;;;4991975;28;20379;-67
2022/04/18 01:20:55;;;;;;;0.40;0.33;;;8.70;49.60;;;;;;5005920;28;20549;-68
2022/04/18 01:23:20;;;;;;;0.40;0.20;;;8.70;50.70;;;;;;4991529;28;20391;-68
2022/04/18 01:31:14;;;;;;;0.40;0.20;;;8.60;50.90;;;;;;5000527;28;20482;-68
2022/04/18 01:33:40;;;;;;;0.40;0.22;;;8.50;50.20;;;;;;5029577;28;20482;-68
2022/04/18 01:36:06;;;;;;;0.40;0.20;;;8.40;50.80;;;;;;5029661;28;20371;-68
2022/04/18 01:38:32;;;;;;;0.40;0.20;;;8.50;51.40;;;;;;5030396;28;20415;-67
2022/04/18 01:40:57;;;;;;;0.40;0.20;;;8.50;51.20;;;;;;5029678;28;20419;-69
2022/04/18 01:43:23;;;;;;;0.40;0.20;;;8.70;52.20;;;;;;5030141;28;20886;-68
2022/04/18 01:45:48;;;;;;;0.40;0.30;;;8.50;51.10;;;;;;5030316;28;20379;-67
2022/04/18 01:48:14;;;;;;;0.40;0.23;;;8.40;51.00;;;;;;5029722;28;20425;-68
2022/04/18 01:50:40;;;;;;;0.40;0.30;;;8.30;51.80;;;;;;5045676;28;20453;-67
2022/04/18 01:53:06;;;;;;;0.70;0.70;;;8.30;52.30;;;;;;5029833;28;20435;-68
2022/04/18 01:55:31;;;;;;;0.40;0.20;;;8.20;50.90;;;;;;5030813;28;20379;-67
2022/04/18 01:57:57;;;;;;;0.40;0.20;;;8.20;51.00;;;;;;5030337;28;20379;-67
2022/04/18 02:00:23;;;;;;;0.40;0.20;;;8.30;50.60;;;;;;5029238;28;20840;-68
2022/04/18 02:02:48;;;;;;;0.40;0.20;;;8.40;50.50;;;;;;5030761;28;20471;-67
2022/04/18 02:05:14;;;;;;;0.40;0.20;;;8.40;50.50;;;;;;5029889;28;20718;-69
2022/04/18 02:07:39;;;;;;;0.40;0.30;;;8.40;51.90;;;;;;5030342;28;20395;-68
2022/04/18 02:10:06;;;;;;;0.40;0.20;;;8.20;50.90;;;;;;5032149;28;20399;-68
2022/04/18 02:12:34;;;;;;;0.40;0.40;;;8.20;52.60;;;;;;5033797;28;20383;-68
2022/04/18 02:15:00;;;;;;;0.40;0.20;;;8.20;51.90;;;;;;5034366;28;20382;-67
2022/04/18 02:17:26;;;;;;;0.40;0.20;;;8.20;51.60;;;;;;5033682;28;20393;-68
2022/04/18 02:19:52;;;;;;;0.40;0.20;;;8.20;52.20;;;;;;5034135;28;20583;-68
2022/04/18 02:22:18;;;;;;;0.40;0.20;;;8.10;52.20;;;;;;5034088;28;20387;-67
2022/04/18 02:24:44;;;;;;;0.40;0.20;;;8.00;52.60;;;;;;5033100;28;20387;-68
2022/04/18 02:27:09;;;;;;;0.40;0.20;;;8.00;53.40;;;;;;5034270;28;20934;-68
2022/04/18 02:29:35;;;;;;;0.40;0.20;;;7.80;53.30;;;;;;5033258;28;20392;-68
2022/04/18 02:34:45;;;;;;;0.40;0.20;;;7.70;54.80;;;;;;5013448;28;20423;-67
2022/04/18 02:37:11;;;;;;;0.40;0.20;;;7.50;55.50;;;;;;5014327;28;20404;-68
2022/04/18 02:39:37;;;;;;;0.40;0.30;;;7.40;55.80;;;;;;5013825;28;20478;-69
2022/04/18 02:42:03;;;;;;;0.40;0.20;;;7.40;57.00;;;;;;5013570;28;20475;-68
2022/04/18 02:44:28;;;;;;;0.40;0.20;;;7.30;56.90;;;;;;5014066;28;20443;-67
2022/04/18 02:46:55;;;;;;;0.40;0.20;;;7.20;56.80;;;;;;5013110;28;20417;-67
2022/04/18 02:49:20;;;;;;;0.80;0.80;;;7.30;58.70;;;;;;5013933;28;20394;-67
2022/04/18 02:51:46;;;;;;;0.40;0.20;;;7.30;57.40;;;;;;5013658;28;20723;-69
2022/04/18 02:54:12;;;;;;;0.40;0.20;;;7.30;57.70;;;;;;5013373;28;20750;-68
2022/04/18 02:56:37;;;;;;;0.40;0.30;;;7.30;57.90;;;;;;5013911;28;20381;-67
2022/04/18 02:59:03;;;;;;;0.40;0.40;;;7.10;59.10;;;;;;5012833;28;20797;-68
2022/04/18 03:01:28;;;;;;;0.40;0.20;;;7.20;58.90;;;;;;5013836;28;20895;-67
2022/04/18 03:03:54;;;;;;;0.40;0.20;;;7.10;58.90;;;;;;5012851;28;20463;-69
2022/04/18 03:06:20;;;;;;;0.40;0.20;;;7.10;59.60;;;;;;5013209;28;20781;-67
2022/04/18 03:08:46;;;;;;;0.40;0.20;;;6.90;59.50;;;;;;5013695;28;20377;-68
2022/04/18 03:11:11;;;;;;;0.40;0.30;;;6.90;61.50;;;;;;5012797;28;20396;-68
2022/04/18 03:13:44;;;;;;;0.40;0.20;;;6.90;62.20;;;;;;5012179;28;20476;-67
2022/04/18 03:16:10;;;;;;;0.40;0.20;;;6.90;62.60;;;;;;5012785;28;20369;-68
2022/04/18 03:18:36;;;;;;;0.40;0.20;;;6.80;62.40;;;;;;5013537;28;20413;-68
2022/04/18 03:21:03;;;;;;;0.40;0.20;;;6.70;62.90;;;;;;5012103;28;20544;-67
2022/04/18 03:23:29;;;;;;;0.40;0.20;;;6.70;63.90;;;;;;5013250;28;20388;-67
2022/04/18 03:25:55;;;;;;;0.40;0.30;;;6.60;64.10;;;;;;5013591;28;20431;-68
2022/04/18 03:28:21;;;;;;;0.40;0.30;;;6.70;65.30;;;;;;5012427;28;20392;-68
2022/04/18 03:30:46;;;;;;;0.60;0.60;;;6.70;64.20;;;;;;5014117;28;20389;-68
2022/04/18 03:33:12;;;;;;;0.60;0.60;;;6.60;63.10;;;;;;5033093;28;20386;-68
2022/04/18 03:35:38;;;;;;;0.40;0.20;;;6.50;62.50;;;;;;5032642;28;20462;-68
2022/04/18 03:40:47;;;;;;;0.40;0.20;;;6.50;64.40;;;;;;5033015;28;20830;-68
2022/04/18 03:43:13;;;;;;;0.40;0.20;;;6.40;65.60;;;;;;5033121;28;20395;-68
2022/04/18 03:45:39;;;;;;;0.40;0.20;;;6.40;64.10;;;;;;5032399;28;20375;-68
2022/04/18 03:48:05;;;;;;;0.40;0.40;;;6.20;64.70;;;;;;5033075;28;20795;-67
2022/04/18 03:50:31;;;;;;;0.40;0.30;;;6.30;65.60;;;;;;5032284;28;20387;-68
2022/04/18 03:52:56;;;;;;;0.40;0.20;;;6.30;64.70;;;;;;5032661;28;20508;-67
2022/04/18 03:55:22;;;;;;;0.40;0.20;;;6.30;65.40;;;;;;5033004;28;20387;-68
2022/04/18 03:57:48;;;;;;;0.40;0.30;;;6.30;66.00;;;;;;5032376;28;21045;-67
2022/04/18 04:00:14;;;;;;;0.40;0.20;;;6.20;68.40;;;;;;5032800;28;20898;-67
2022/04/18 04:02:43;;;;;;;0.40;0.20;;;6.30;67.80;;;;;;5031757;28;20510;-68
2022/04/18 04:05:08;;;;;;;0.40;0.30;;;6.20;67.00;;;;;;5031284;28;20395;-68
2022/04/18 04:07:34;;;;;;;0.40;0.20;;;6.30;67.60;;;;;;5032392;28;20534;-68
2022/04/18 04:10:00;;;;;;;0.40;0.20;;;6.30;67.90;;;;;;5031737;28;20399;-68
2022/04/18 04:12:27;;;;;;;0.40;0.20;;;6.30;68.60;;;;;;5032288;28;20436;-67
2022/04/18 04:14:53;;;;;;;0.40;0.20;;;6.40;67.90;;;;;;5031714;28;20406;-68
2022/04/18 04:17:21;;;;;;;0.40;0.20;;;6.30;67.60;;;;;;5032619;28;20474;-68
2022/04/18 04:19:47;;;;;;;0.40;0.30;;;6.20;67.90;;;;;;5030371;28;20415;-69
2022/04/18 04:22:13;;;;;;;0.40;0.20;;;6.20;71.50;;;;;;5032559;28;20744;-68
2022/04/18 04:24:38;;;;;;;0.40;0.20;;;6.10;70.00;;;;;;5032111;28;20383;-67
2022/04/18 04:27:04;;;;;;;0.40;0.20;;;6.00;72.70;;;;;;5031517;28;20379;-68
2022/04/18 04:29:30;;;;;;;0.40;0.20;;;6.00;71.30;;;;;;5031952;28;20864;-67
2022/04/18 04:31:55;;;;;;;0.40;0.20;;;5.90;73.50;;;;;;5031148;28;20395;-68
2022/04/18 04:34:21;;;;;;;0.40;0.30;;;5.80;74.70;;;;;;5031890;28;20453;-68
2022/04/18 04:36:47;;;;;;;0.40;0.40;;;5.80;74.10;;;;;;5032205;28;20879;-68
2022/04/18 04:39:12;;;;;;;0.40;0.20;;;5.80;77.50;;;;;;5030852;28;20447;-68
2022/04/18 04:41:38;;;;;;;0.40;0.20;;;5.90;75.30;;;;;;5031911;28;20375;-67
2022/04/18 04:44:06;;;;;;;0.60;0.60;;;5.90;78.00;;;;;;5031292;28;20453;-68
2022/04/18 04:46:32;;;;;;;0.40;0.20;;;5.90;78.00;;;;;;5032038;28;20391;-67
2022/04/18 04:48:58;;;;;;;0.60;0.60;;;5.90;76.30;;;;;;5032065;28;20391;-67
2022/04/18 04:51:23;;;;;;;0.40;0.30;;;5.90;77.40;;;;;;5031327;28;20597;-67
2022/04/18 04:53:49;;;;;;;0.40;0.20;;;6.00;78.10;;;;;;5031885;28;20386;-67
2022/04/18 04:56:17;;;;;;;0.40;0.20;;;5.90;77.90;;;;;;5031025;28;20860;-68
2022/04/18 04:58:42;;;;;;;0.40;0.20;;;6.00;78.50;;;;;;5030323;28;20448;-67
2022/04/18 05:01:08;;;;;;;0.40;0.20;;;6.20;79.70;;;;;;5031797;28;20916;-67
2022/04/18 05:03:34;;;;;;;0.40;0.20;;;6.00;76.90;;;;;;5030755;28;20466;-67
2022/04/18 05:06:00;;;;;;;0.40;0.20;;;6.20;80.20;;;;;;5031788;28;20389;-67
2022/04/18 05:08:26;;;;;;;0.40;0.20;;;6.10;77.40;;;;;;5030779;28;20387;-67
2022/04/18 05:10:54;;;;;;;0.40;0.20;;;6.20;78.40;;;;;;5031531;28;20965;-67
2022/04/18 05:13:22;;;;;;;0.45;0.35;;;6.10;76.50;;;;;;5030194;28;20878;-68
2022/04/18 05:15:48;;;;;;;0.40;0.20;;;6.20;81.30;;;;;;5031338;28;20473;-67
2022/04/18 05:18:14;;;;;;;0.40;0.40;;;6.30;81.00;;;;;;5031597;28;20603;-67
2022/04/18 05:20:39;;;;;;;0.40;0.20;;;6.30;78.90;;;;;;5030499;28;20768;-67
2022/04/18 05:23:05;;;;;;;0.40;0.20;;;6.20;80.20;;;;;;5031056;28;20383;-67
2022/04/18 05:25:31;;;;;;;0.40;0.20;;;6.30;81.40;;;;;;5030642;28;20379;-68
2022/04/18 05:27:57;;;;;;;0.40;0.20;;;6.40;78.80;;;;;;5030876;28;20379;-67
2022/04/18 05:30:24;;;;;;;0.40;0.20;;;6.40;78.40;;;;;;5030932;28;20863;-67
2022/04/18 05:32:50;;;;;;;0.40;0.20;;;6.50;80.90;;;;;;5046319;28;20727;-67
2022/04/18 05:35:15;;;;;;;0.40;0.20;;;6.50;82.90;;;;;;5031761;28;20470;-67
2022/04/18 05:37:41;;;;;;;0.40;0.20;;;6.50;83.20;;;;;;5029077;28;20954;-68
2022/04/18 05:40:07;;;;;;;0.40;0.20;;;6.60;76.70;;;;;;5031090;28;20423;-67
2022/04/18 05:42:33;;;;;;;0.40;0.20;;;6.70;82.90;;;;;;5031031;28;20384;-67
2022/04/18 05:44:59;;;;;;;0.40;0.20;;;6.80;81.00;;;;;;5029580;28;20511;-67
2022/04/18 05:47:24;;;;;;;0.40;0.20;;;6.70;80.00;;;;;;5031024;28;20383;-67
2022/04/18 05:49:50;;;;;;;0.40;0.20;;;6.90;79.10;;;;;;5030028;28;20383;-67
2022/04/18 05:52:16;;;;;;;0.40;0.20;;;7.00;77.40;;;;;;5030703;28;20701;-67
2022/04/18 05:54:42;;;;;;;0.40;0.20;;;7.10;79.20;;;;;;5030754;28;20422;-67
2022/04/18 05:57:08;;;;;;;0.40;0.20;;;7.20;79.50;;;;;;5030145;28;20384;-67
2022/04/18 05:59:33;;;;;;;0.40;0.30;;;7.30;78.60;;;;;;5030634;28;20403;-67
2022/04/18 06:01:59;;;;;;;0.40;0.20;;;7.50;75.00;;;;;;5030085;28;20433;-68
2022/04/18 06:04:25;;;;;;;0.40;0.20;;;7.60;67.00;;;;;;5014621;28;20388;-67
2022/04/18 06:06:51;;;;;;;0.40;0.20;;;7.60;66.70;;;;;;5002304;28;21691;-68
2022/04/18 06:09:16;;;;;;;0.40;0.20;;;7.60;66.80;;;;;;5016111;28;20455;-67
2022/04/18 06:11:42;;;;;;;0.40;0.20;;;7.70;66.60;;;;;;5002358;28;20425;-69
2022/04/18 06:14:08;;;;;;;0.40;0.20;;;7.80;66.00;;;;;;5004148;28;20392;-67
2022/04/18 06:16:34;;;;;;;0.40;0.20;;;7.80;65.10;;;;;;5010885;28;20474;-67
2022/04/18 06:18:59;;;;;;;1.10;0.80;;;7.70;65.10;;;;;;5006047;28;20531;-67
2022/04/18 06:21:25;;;;;;;2.50;0.70;;;7.70;65.50;;;;;;5010156;28;20438;-67
2022/04/18 06:23:51;;;;;;;0.90;0.70;;;7.80;66.10;;;;;;5010910;28;20384;-67
2022/04/18 06:26:17;;;;;;;0.40;0.20;;;7.90;65.80;;;;;;5005338;28;20393;-67
2022/04/18 06:28:43;;;;;;;0.40;0.20;;;8.00;65.60;;;;;;5010771;28;20885;-67
2022/04/18 06:31:09;;;;;;;0.40;0.20;;;7.90;66.00;;;;;;5010491;28;20449;-68
2022/04/18 06:33:34;;;;;;;0.50;0.50;;;8.00;65.20;;;;;;5010816;28;20480;-67
2022/04/18 06:36:01;;;;;;;0.40;0.20;;;8.10;65.50;;;;;;5009203;28;20389;-67
2022/04/18 06:38:28;;;;;;;0.40;0.20;;;8.10;66.80;;;;;;5009585;28;20413;-67
2022/04/18 06:40:56;;;;;;;0.40;0.20;;;8.20;66.40;;;;;;5001746;28;20428;-67
2022/04/18 06:43:22;;;;;;;0.40;0.20;;;8.40;64.70;;;;;;5006880;28;20435;-67
2022/04/18 06:45:48;;;;;;;0.50;0.50;;;8.40;66.30;;;;;;5001162;28;20396;-68
2022/04/18 06:48:13;;;;;;;0.40;0.22;;;8.50;65.10;;;;;;5000804;28;20394;-67
2022/04/18 06:50:39;;;;;;;0.40;0.20;;;8.60;63.10;;;;;;5009745;28;20381;-67
2022/04/18 06:53:05;;;;;;;0.40;0.30;;;8.60;62.70;;;;;;5010323;28;20381;-67
2022/04/18 06:56:58;;;;;;;0.40;0.28;;;8.60;64.70;;;;;;5008701;28;20454;-68
2022/04/18 06:58:16;;;;;;;0.40;0.30;;;8.80;62.70;;;;;;4996176;28;20400;-67
2022/04/18 07:00:42;;;;;;;0.40;0.30;;;9.00;61.50;;;;;;4995353;28;20414;-67
2022/04/18 07:03:08;;;;;;;0.40;0.20;;;9.10;60.70;;;;;;4994949;28;20391;-67
2022/04/18 07:05:33;;;;;;;0.40;0.20;;;9.10;60.50;;;;;;4993596;28;20386;-68
2022/04/18 07:07:59;;;;;;;0.40;0.20;;;9.30;59.70;;;;;;5004115;28;20760;-68
2022/04/18 07:10:24;;;;;;;0.40;0.30;;;9.30;59.80;;;;;;5013638;28;20862;-68
2022/04/18 07:12:50;;;;;;;0.50;0.50;;;9.30;58.80;;;;;;5013010;28;20488;-68
2022/04/18 07:15:16;;;;;;;0.40;0.30;;;9.40;59.80;;;;;;5010286;28;20396;-68
2022/04/18 07:17:42;;;;;;;0.40;0.20;;;9.40;59.30;;;;;;4994612;28;20394;-68
2022/04/18 07:20:08;;;;;;;0.40;0.20;;;9.50;59.40;;;;;;5009261;28;20430;-68
2022/04/18 07:22:40;;;;;;;0.40;0.40;;;9.60;59.50;;;;;;5000822;28;20389;-68
2022/04/18 07:25:08;;;;;;;0.40;0.20;;;9.50;59.00;;;;;;4999640;28;20395;-68
2022/04/18 07:27:34;;;;;;;0.40;0.20;;;9.50;58.50;;;;;;4997357;28;20387;-68
2022/04/18 07:29:59;;;;;;;0.40;0.20;;;9.50;57.80;;;;;;5002140;28;20673;-68
2022/04/18 07:32:25;;;;;;;0.40;0.20;;;9.70;58.20;;;;;;5012488;28;20385;-68
2022/04/18 07:34:51;;;;;;;0.40;0.30;;;9.60;58.10;;;;;;5012567;28;20392;-68
2022/04/18 07:37:16;;;;;;;0.40;0.20;;;9.70;58.70;;;;;;5001464;28;20899;-67
2022/04/18 07:39:42;;;;;;;0.40;0.20;;;9.80;57.80;;;;;;4993214;28;20430;-69
2022/04/18 07:42:08;;;;;;;0.40;0.32;;;9.90;57.60;;;;;;5011706;28;20403;-68
2022/04/18 07:44:33;;;;;;;0.50;0.50;;;9.80;57.10;;;;;;5013388;28;20383;-68
2022/04/18 07:46:59;;;;;;;0.40;0.20;;;9.80;57.20;;;;;;5012218;28;20389;-68
2022/04/18 07:49:25;;;;;;;0.40;0.20;;;9.90;56.90;;;;;;5012823;28;20451;-68
2022/04/18 07:51:51;;;;;;;0.40;0.30;;;10.10;55.50;;;;;;5007970;28;20841;-69
2022/04/18 07:54:19;;;;;;;0.40;0.40;;;10.10;55.50;;;;;;5012372;28;20389;-68
2022/04/18 07:56:45;;;;;;;0.40;0.20;;;10.20;55.30;;;;;;5013077;28;20392;-68
2022/04/18 07:59:12;;;;;;;0.40;0.20;;;10.20;54.50;;;;;;5012264;28;20880;-68
2022/04/18 08:01:38;;;;;;;0.40;0.30;;;10.20;55.80;;;;;;5013077;28;20393;-68
2022/04/18 08:04:04;;;;;;;0.40;0.20;;;10.30;54.80;;;;;;5012153;28;20392;-68
2022/04/18 08:06:31;;;;;;;0.40;0.40;;;10.40;54.80;;;;;;5012578;28;20411;-67
2022/04/18 08:08:57;;;;;;;0.40;0.20;;;10.40;54.40;;;;;;5012240;28;20377;-68
2022/04/18 08:11:23;;;;;;;1.50;0.90;;;10.40;54.80;;;;;;5012096;28;20464;-68
2022/04/18 08:13:50;;;;;;;0.40;0.20;;;10.30;54.50;;;;;;5012941;28;20513;-67
2022/04/18 08:16:16;;;;;;;1.60;0.60;;;10.30;54.60;;;;;;5011635;28;20980;-68
2022/04/18 08:18:44;;;;;;;0.90;0.90;;;10.30;54.10;;;;;;5012920;28;20392;-67
2022/04/18 08:21:11;;;;;;;0.40;0.20;;;10.40;54.00;;;;;;5011953;28;20478;-69
2022/04/18 08:23:37;;;;;;;1.00;0.60;;;10.50;53.10;;;;;;5012880;28;20420;-69
2022/04/18 08:26:04;;;;;;;0.40;0.20;;;10.50;52.70;;;;;;5012635;28;20381;-67
2022/04/18 08:28:30;;;;;;;1.10;0.80;;;10.50;54.10;;;;;;5011532;28;21012;-68
2022/04/18 08:30:57;;;;;;;0.40;0.35;;;10.40;54.40;;;;;;5014440;28;20389;-67
2022/04/18 08:33:23;;;;;;;0.40;0.20;;;10.40;54.30;;;;;;5031516;28;20380;-67
2022/04/18 08:35:49;;;;;;;0.40;0.30;;;10.60;54.00;;;;;;5032442;28;20387;-67
2022/04/18 08:38:15;;;;;;;0.43;0.38;;;10.70;52.60;;;;;;5031993;28;20494;-67
2022/04/18 08:40:43;;;;;;;0.40;0.20;;;10.70;52.60;;;;;;5031274;28;20501;-67
2022/04/18 08:43:09;;;;;;;0.40;0.20;;;10.80;52.00;;;;;;5032033;28;20383;-67
2022/04/18 08:45:37;;;;;;;2.28;0.57;;;11.00;51.30;;;;;;5031560;28;20374;-67
2022/04/18 08:53:32;;;;;;;0.40;0.20;;;11.00;51.60;;;;;;5030780;28;20390;-67
2022/04/18 08:55:59;;;;;;;0.40;0.20;;;11.10;52.20;;;;;;5031785;28;20375;-68
2022/04/18 08:58:28;;;;;;;1.30;0.80;;;11.10;51.40;;;;;;5031769;28;20458;-68
2022/04/18 09:00:56;;;;;;;0.40;0.20;;;11.10;51.90;;;;;;5031506;28;20423;-67
2022/04/18 09:03:22;;;;;;;0.40;0.40;;;11.20;51.60;;;;;;5031431;28;20387;-68
2022/04/18 09:05:48;;;;;;;0.40;0.20;;;11.20;51.30;;;;;;5030580;28;20474;-66
2022/04/18 09:08:14;;;;;;;0.40;0.20;;;11.30;51.80;;;;;;5031694;28;20482;-67
2022/04/18 09:10:41;;;;;;;0.70;0.70;;;11.40;52.40;;;;;;5030414;28;20466;-67
2022/04/18 09:13:13;;;;;;;0.40;0.20;;;11.50;51.80;;;;;;5031214;28;20437;-67
2022/04/18 09:15:49;;;;;;;0.40;0.20;;;11.70;52.30;;;;;;5030670;28;20449;-67
2022/04/18 09:18:17;;;;;;;0.90;0.80;;;11.70;51.30;;;;;;5031315;28;20386;-67
2022/04/18 09:20:52;;;;;;;0.40;0.20;;;11.80;51.60;;;;;;5028918;28;20425;-68
2022/04/18 09:23:33;;;;;;;0.40;0.20;;;11.70;50.90;;;;;;5031272;28;20422;-67
2022/04/18 09:26:06;;;;;;;0.40;0.20;;;11.70;51.10;;;;;;5030405;28;20393;-67
2022/04/18 09:28:36;;;;;;;0.40;0.30;;;11.90;52.00;;;;;;5031233;28;20395;-67
2022/04/18 09:31:11;;;;;;;0.40;0.30;;;12.00;51.40;;;;;;5027317;28;20547;-68
2022/04/18 09:33:56;;;;;;;0.50;0.50;;;12.10;51.00;;;;;;5011700;28;20467;-67
2022/04/18 09:36:23;;;;;;;0.50;0.40;;;12.30;51.20;;;;;;5011200;28;20731;-68
2022/04/18 09:38:54;;;;;;;0.40;0.20;;;12.20;51.10;;;;;;5007490;28;20504;-67
2022/04/18 09:41:29;;;;;;;0.40;0.20;;;12.20;49.70;;;;;;5006151;28;20415;-67
2022/04/18 09:43:55;;;;;;;0.40;0.20;;;12.20;50.50;;;;;;5009711;28;20483;-67
2022/04/18 09:46:22;;;;;;;1.10;0.70;;;12.20;50.60;;;;;;5009271;28;20385;-67
2022/04/18 09:48:50;;;;;;;0.40;0.20;;;12.30;50.90;;;;;;5011997;28;20377;-67
2022/04/18 09:51:24;;;;;;;0.40;0.30;;;12.40;49.90;;;;;;5019153;28;20475;-67
2022/04/18 09:53:53;;;;;;;0.40;0.20;;;12.50;50.50;;;;;;5018824;28;20389;-67
2022/04/18 09:56:22;;;;;;;1.80;1.00;;;12.50;49.90;;;;;;5018923;28;20463;-67
2022/04/18 09:58:48;;;;;;;1.70;0.80;;;12.60;51.70;;;;;;5021052;28;20471;-68
2022/04/18 10:01:14;;;;;;;0.40;0.20;;;12.80;50.70;;;;;;5020774;28;20444;-67
2022/04/18 10:03:41;;;;;;;0.40;0.30;;;12.80;51.00;;;;;;5021217;28;20381;-67
2022/04/18 10:06:08;;;;;;;0.40;0.20;;;12.90;51.40;;;;;;5021485;28;20409;-67
2022/04/18 10:08:35;;;;;;;0.47;0.47;;;12.90;50.60;;;;;;5020149;28;20482;-67
2022/04/18 10:11:02;;;;;;;0.40;0.20;;;12.90;50.00;;;;;;5021406;28;20375;-67
2022/04/18 10:13:29;;;;;;;0.40;0.30;;;13.00;50.50;;;;;;5021006;28;20386;-67
2022/04/18 10:15:58;;;;;;;0.52;0.52;;;13.20;51.80;;;;;;5018975;28;20449;-67
2022/04/18 10:18:24;;;;;;;0.40;0.20;;;13.30;50.90;;;;;;5020486;28;20379;-67
2022/04/18 10:21:02;;;;;;;0.40;0.30;;;13.30;51.20;;;;;;5017657;28;20844;-67
2022/04/18 10:23:49;;;;;;;0.40;0.20;;;13.50;51.20;;;;;;5011316;28;20462;-67
2022/04/18 10:26:47;;;;;;;0.40;0.20;;;13.30;49.10;;;;;;5014135;28;20401;-68
2022/04/18 10:29:39;;;;;;;0.40;0.20;;;13.60;49.10;;;;;;5018962;28;20463;-67
2022/04/18 10:32:07;;;;;;;2.60;0.90;;;13.60;48.70;;;;;;5023733;28;20391;-67
2022/04/18 10:34:35;;;;;;;0.40;0.30;;;13.70;49.10;;;;;;5024414;28;20378;-68
2022/04/18 10:37:03;;;;;;;0.40;0.20;;;13.80;47.80;;;;;;5023775;28;20479;-67
2022/04/18 10:39:37;;;;;;;0.40;0.20;;;14.00;47.90;;;;;;5039839;28;20428;-68
2022/04/18 10:42:22;;;;;;;0.40;0.30;;;14.00;46.80;;;;;;5023014;28;20438;-67
2022/04/18 10:45:08;;;;;;;0.60;0.60;;;13.90;45.70;;;;;;5018745;28;20407;-68
2022/04/18 10:47:56;;;;;;;0.40;0.20;;;14.00;45.30;;;;;;5024199;28;20391;-68
2022/04/18 10:50:26;;;;;;;0.40;0.20;;;14.20;45.70;;;;;;5021192;28;20484;-68
2022/04/18 10:53:22;;;;;;;0.40;0.30;;;14.40;45.30;;;;;;5022449;28;20476;-68
2022/04/18 10:55:53;;;;;;;0.40;0.20;;;14.50;45.00;;;;;;5023009;28;20391;-68
2022/04/18 10:58:24;;;;;;;0.40;0.20;;;14.50;45.10;;;;;;5022462;28;20426;-67
2022/04/18 11:00:51;;;;;;;0.40;0.30;;;14.60;43.50;;;;;;5021608;28;20437;-68
2022/04/18 11:03:39;;;;;;;0.40;0.20;;;14.60;44.90;;;;;;5022720;28;20888;-67
2022/04/18 11:06:07;;;;;;;0.40;0.25;;;15.00;45.40;;;;;;5022050;28;20393;-67
2022/04/18 11:08:39;;;;;;;0.80;0.70;;;15.00;44.50;;;;;;5021596;28;20384;-67
2022/04/18 11:11:17;;;;;;;0.40;0.25;;;15.30;46.10;;;;;;5022300;28;20393;-67
2022/04/18 11:13:46;;;;;;;0.40;0.30;;;15.50;46.20;;;;;;5020040;28;20445;-68
2022/04/18 11:16:24;;;;;;;0.40;0.20;;;15.70;44.90;;;;;;5023177;28;20391;-67
2022/04/18 11:19:16;;;;;;;0.60;0.60;;;15.90;46.20;;;;;;5020706;28;20512;-68
2022/04/18 11:22:00;;;;;;;0.40;0.30;;;15.70;43.80;;;;;;5020484;28;20753;-67
2022/04/18 11:24:41;;;;;;;0.40;0.30;;;16.00;45.50;;;;;;5020632;28;20895;-67
2022/04/18 11:27:09;;;;;;;0.40;0.30;;;16.20;45.00;;;;;;5022162;28;20493;-67
2022/04/18 11:29:36;;;;;;;0.40;0.20;;;16.80;44.90;;;;;;5025195;28;20436;-70
2022/04/18 11:32:03;;;;;;;0.40;0.20;;;16.80;45.00;;;;;;5020777;28;20394;-67
2022/04/18 11:34:30;;;;;;;0.40;0.20;;;17.30;44.30;;;;;;5021832;28;20382;-68
2022/04/18 11:36:58;;;;;;;0.40;0.20;;;17.20;42.80;;;;;;5022401;28;20747;-67
2022/04/18 11:39:24;;;;;;;0.40;0.30;;;18.20;42.90;;;;;;5021560;28;20445;-67
2022/04/18 11:42:01;;;;;;;0.40;0.30;;;18.20;43.10;;;;;;5021134;28;20414;-67
2022/04/18 11:44:40;;;;;;;0.40;0.30;;;18.20;43.80;;;;;;5020656;28;21333;-68
2022/04/18 11:47:19;;;;;;;0.40;0.30;;;19.00;41.00;;;;;;5015294;28;20398;-66
2022/04/18 11:49:45;;;;;;;0.50;0.40;;;19.90;41.00;;;;;;5020699;28;20379;-69
2022/04/18 11:52:27;;;;;;;0.40;0.20;;;20.40;39.60;;;;;;5020867;28;20859;-68
2022/04/18 11:54:58;;;;;;;0.40;0.20;;;20.20;38.20;;;;;;5021837;28;20440;-68
2022/04/18 11:57:24;;;;;;;0.40;0.20;;;21.30;40.20;;;;;;5019037;28;20397;-68
2022/04/18 11:59:49;;;;;;;0.40;0.20;;;20.40;37.20;;;;;;5023747;28;20495;-70
2022/04/18 12:07:46;;;;;;;0.40;0.20;;;20.10;40.60;;;;;;5018698;28;20439;-67
2022/04/18 12:10:33;;;;;;;0.40;0.30;;;20.10;41.10;;;;;;5023289;28;21222;-68
2022/04/18 12:13:14;;;;;;;0.40;0.30;;;20.50;38.80;;;;;;5021666;28;20421;-69
2022/04/18 12:15:41;;;;;;;0.40;0.30;;;21.60;43.00;;;;;;5020700;28;20373;-68
2022/04/18 12:18:18;;;;;;;0.40;0.30;;;21.90;40.20;;;;;;5021990;28;20384;-68
2022/04/18 12:20:46;;;;;;;0.40;0.38;;;22.00;37.80;;;;;;5023654;28;20407;-68
2022/04/18 12:23:19;;;;;;;0.40;0.30;;;21.90;36.80;;;;;;5020019;28;20725;-68
2022/04/18 12:25:48;;;;;;;0.40;0.20;;;20.50;36.60;;;;;;5020745;28;20398;-67
2022/04/18 12:28:15;;;;;;;0.40;0.20;;;21.40;37.50;;;;;;5021333;28;20385;-68
2022/04/18 12:30:41;;;;;;;0.50;0.40;;;21.30;35.60;;;;;;5020651;28;20380;-68
2022/04/18 12:33:21;;;;;;;0.40;0.20;;;22.00;35.00;;;;;;5020603;28;20546;-69
2022/04/18 12:35:56;;;;;;;0.40;0.25;;;20.80;35.10;;;;;;5019122;28;20384;-68
2022/04/18 12:38:39;;;;;;;0.40;0.20;;;21.50;36.10;;;;;;5022237;28;20403;-68
2022/04/18 12:41:05;;;;;;;0.40;0.20;;;22.40;35.50;;;;;;5017690;28;20410;-68
2022/04/18 12:43:33;;;;;;;0.40;0.20;;;21.50;34.80;;;;;;5021239;28;20397;-68
2022/04/18 12:46:01;;;;;;;0.40;0.20;;;20.10;34.20;;;;;;5020795;28;20455;-67
2022/04/18 12:48:32;;;;;;;0.40;0.20;;;19.90;36.70;;;;;;5025258;28;20478;-68
2022/04/18 12:51:00;;;;;;;0.40;0.30;;;20.90;39.40;;;;;;5021810;28;20829;-68
2022/04/18 12:53:45;;;;;;;0.40;0.20;;;22.30;35.40;;;;;;5019073;28;20471;-68
2022/04/18 12:56:11;;;;;;;0.40;0.30;;;22.30;35.00;;;;;;5001508;28;20398;-68
2022/04/18 12:58:39;;;;;;;0.40;0.20;;;20.90;35.70;;;;;;5008219;28;20385;-67
2022/04/18 13:01:05;;;;;;;0.40;0.20;;;21.40;36.00;;;;;;5007017;28;20424;-67
2022/04/18 13:03:44;;;;;;;0.40;0.30;;;21.40;39.80;;;;;;5000506;28;21022;-69
2022/04/18 13:06:10;;;;;;;0.40;0.30;;;20.90;35.80;;;;;;5004785;28;20387;-68
2022/04/18 13:08:38;;;;;;;0.40;0.20;;;20.00;36.10;;;;;;5005424;28;20401;-68
2022/04/18 13:11:04;;;;;;;0.40;0.28;;;19.90;37.20;;;;;;5006687;28;20412;-67
2022/04/18 13:13:30;;;;;;;0.50;0.30;;;20.70;38.00;;;;;;5004061;28;20484;-67
2022/04/18 13:15:55;;;;;;;0.47;0.30;;;20.40;37.80;;;;;;5001100;28;20476;-69
2022/04/18 13:18:26;;;;;;;0.40;0.30;;;20.10;37.40;;;;;;4999215;28;20404;-69